»·PEaware :: N42SB KFUL-KSNA

N42SB :: KFUL-KSNA

FLIGHT INFORMATION

Flight Status: Arrived
Operator: Privately registered:
United States
More flights under this callsign
Pilot: Brody Z. (18981)
Aircraft: CESSNA 172 SKYHAWK
(C172)
More flights by this aircraft type
Origin: KFUL Fullerton Mun
United States
Destination: KSNA John Wayne-Orange Co
United States
More flights between these airports :: More routes between these airports
Route: +SLI
File this flight plan on PilotEdge
Remarks: Custom weather for frame-rate performance. Will request ILS 20R approach into KSNA.
Altitude:
(Current/Filed)
4,000ft
Speed:
(Current/Filed)
105kts
Departed: 11-Oct-18 02:53 PM
Arrived: 11-Oct-18 03:26 PM
Distance/Time
Traveled:
13nm/0:33
Distance/Time
To Go:
Arrived

Flight Plot

Page will automatically refresh every two minutes.


Map Options




Map Legend


Flown Route
Filed Route
Departure Airport
Arrival Airport
Navaid (VOR, NDB)
Fix

Horizontal Profiles

Position Reports

Time Latitude Longitude Heading Altitude Ground
Speed
11-Oct-18 14:32 33.871167 -117.978187 259 100ft 0kts
11-Oct-18 14:33 33.871167 -117.978187 259 100ft 0kts
11-Oct-18 14:34 33.871167 -117.978187 259 100ft 0kts
11-Oct-18 14:35 33.871167 -117.978187 259 100ft 0kts
11-Oct-18 14:36 33.871167 -117.978187 259 100ft 0kts
11-Oct-18 14:37 33.871167 -117.978187 259 100ft 0kts
11-Oct-18 14:38 33.871167 -117.978187 259 100ft 0kts
11-Oct-18 14:39 33.871167 -117.978187 259 100ft 0kts
11-Oct-18 14:40 33.871167 -117.978187 259 100ft 0kts
11-Oct-18 14:41 33.871167 -117.978187 259 100ft 0kts
11-Oct-18 14:42 33.871167 -117.978187 259 100ft 0kts
11-Oct-18 14:43 33.871167 -117.978187 259 100ft 0kts
11-Oct-18 14:44 33.871167 -117.978187 259 100ft 0kts
11-Oct-18 14:45 33.871167 -117.978187 259 100ft 0kts
11-Oct-18 14:46 33.871167 -117.978187 259 100ft 0kts
11-Oct-18 14:47 33.871167 -117.978187 259 100ft 0kts
11-Oct-18 14:48 33.871167 -117.978187 259 100ft 0kts
11-Oct-18 14:49 33.871167 -117.978187 259 100ft 0kts
11-Oct-18 14:50 33.871167 -117.978187 259 100ft 0kts
11-Oct-18 14:51 33.871379 -117.978232 5 100ft 6kts
11-Oct-18 14:52 33.872407 -117.975633 76 100ft 18kts
11-Oct-18 14:53 33.872606 -117.974826 12 100ft 0kts
11-Oct-18 14:54 33.872954 -117.975056 264 100ft 8kts
11-Oct-18 14:55 33.871036 -117.984601 254 255ft 83kts
11-Oct-18 14:56 33.860082 -117.990413 136 819ft 94kts
11-Oct-18 14:57 33.847941 -117.972239 127 1600ft 89kts
11-Oct-18 14:58 33.838939 -117.957464 124 2154ft 92kts
11-Oct-18 14:59 33.831903 -117.945458 126 2383ft 87kts
11-Oct-18 15:00 33.824608 -117.934277 127 2798ft 85kts
11-Oct-18 15:01 33.817230 -117.921929 106 3013ft 98kts
11-Oct-18 15:02 33.824499 -117.906582 49 3110ft 103kts
11-Oct-18 15:03 33.835351 -117.890453 51 3066ft 106kts
11-Oct-18 15:04 33.846024 -117.874092 53 2983ft 111kts
11-Oct-18 15:05 33.855421 -117.859628 50 3035ft 105kts
11-Oct-18 15:06 33.864809 -117.845345 52 3028ft 110kts
11-Oct-18 15:07 33.873902 -117.830323 55 3037ft 110kts
11-Oct-18 15:08 33.883528 -117.815578 57 3050ft 109kts
11-Oct-18 15:09 33.883134 -117.795780 101 3038ft 113kts
11-Oct-18 15:10 33.880469 -117.777044 100 3014ft 113kts
11-Oct-18 15:11 33.877791 -117.759813 113 2982ft 113kts
11-Oct-18 15:12 33.867168 -117.752209 185 3004ft 111kts
11-Oct-18 15:13 33.853668 -117.758868 206 3064ft 106kts
11-Oct-18 15:14 33.839875 -117.767152 207 3221ft 99kts
11-Oct-18 15:15 33.823908 -117.776281 203 3155ft 113kts
11-Oct-18 15:16 33.802684 -117.788419 206 2754ft 124kts
11-Oct-18 15:17 33.785883 -117.798886 207 2380ft 101kts
11-Oct-18 15:18 33.773549 -117.807162 212 2089ft 91kts
11-Oct-18 15:19 33.762448 -117.814169 203 1884ft 82kts
11-Oct-18 15:20 33.751752 -117.821012 211 1610ft 78kts
11-Oct-18 15:21 33.741925 -117.826940 207 1389ft 78kts
11-Oct-18 15:22 33.731508 -117.833655 208 1183ft 81kts
11-Oct-18 15:23 33.720757 -117.839696 206 974ft 79kts
11-Oct-18 15:24 33.710691 -117.846949 210 716ft 81kts
11-Oct-18 15:25 33.700854 -117.852912 207 517ft 79kts
11-Oct-18 15:26 33.691460 -117.859076 215 306ft 78kts
11-Oct-18 15:27 33.682170 -117.864699 208 103ft 69kts
11-Oct-18 15:28 33.675806 -117.869433 299 60ft 5kts
11-Oct-18 15:29 33.676012 -117.870096 272 60ft 10kts

Navigation Log

Ident Type
Flight plan parsing failed, navigation log unavailable